sensor_id;sensor_type;location;lat;lon;timestamp;temperature;humidity
67893;DHT22;54688;52.376;16.744;2023-12-20T00:01:48;5.8;90.4
67893;DHT22;54688;52.376;16.744;2023-12-20T00:04:51;5.8;90.4
67893;DHT22;54688;52.376;16.744;2023-12-20T00:07:53;5.9;90.4
67893;DHT22;54688;52.376;16.744;2023-12-20T00:10:56;5.8;90.4
67893;DHT22;54688;52.376;16.744;2023-12-20T00:13:58;5.8;90.4
67893;DHT22;54688;52.376;16.744;2023-12-20T00:17:00;5.8;90.4
67893;DHT22;54688;52.376;16.744;2023-12-20T00:20:03;5.8;90.4
67893;DHT22;54688;52.376;16.744;2023-12-20T00:23:05;5.8;90.6
67893;DHT22;54688;52.376;16.744;2023-12-20T00:26:07;5.8;90.4
67893;DHT22;54688;52.376;16.744;2023-12-20T00:29:09;5.8;90.4
67893;DHT22;54688;52.376;16.744;2023-12-20T00:32:11;5.8;90.4
67893;DHT22;54688;52.376;16.744;2023-12-20T00:35:13;5.8;90.4
67893;DHT22;54688;52.376;16.744;2023-12-20T00:38:16;5.8;90.3
67893;DHT22;54688;52.376;16.744;2023-12-20T00:41:19;5.8;90.4
67893;DHT22;54688;52.376;16.744;2023-12-20T00:44:21;5.8;90.4
67893;DHT22;54688;52.376;16.744;2023-12-20T00:47:24;5.7;90.4
67893;DHT22;54688;52.376;16.744;2023-12-20T00:50:25;5.7;90.4
67893;DHT22;54688;52.376;16.744;2023-12-20T00:53:27;5.8;90.4
67893;DHT22;54688;52.376;16.744;2023-12-20T00:56:29;5.7;90.6
67893;DHT22;54688;52.376;16.744;2023-12-20T00:59:32;5.7;90.4
67893;DHT22;54688;52.376;16.744;2023-12-20T01:02:35;5.7;90.4
67893;DHT22;54688;52.376;16.744;2023-12-20T01:05:37;5.7;90.4
67893;DHT22;54688;52.376;16.744;2023-12-20T01:08:39;5.7;90.5
67893;DHT22;54688;52.376;16.744;2023-12-20T01:11:42;5.7;90.5
67893;DHT22;54688;52.376;16.744;2023-12-20T01:14:44;5.6;90.4
67893;DHT22;54688;52.376;16.744;2023-12-20T01:17:46;5.7;90.4
67893;DHT22;54688;52.376;16.744;2023-12-20T01:20:49;5.6;90.3
67893;DHT22;54688;52.376;16.744;2023-12-20T01:23:51;5.6;90.4
67893;DHT22;54688;52.376;16.744;2023-12-20T01:26:53;5.6;90.4
67893;DHT22;54688;52.376;16.744;2023-12-20T01:29:55;5.6;90.4
67893;DHT22;54688;52.376;16.744;2023-12-20T01:32:58;5.6;90.4
67893;DHT22;54688;52.376;16.744;2023-12-20T01:36:01;5.6;90.4
67893;DHT22;54688;52.376;16.744;2023-12-20T01:39:04;5.6;90.4
67893;DHT22;54688;52.376;16.744;2023-12-20T01:42:06;5.6;90.4
67893;DHT22;54688;52.376;16.744;2023-12-20T01:45:08;5.6;90.4
67893;DHT22;54688;52.376;16.744;2023-12-20T01:48:11;5.6;90.4
67893;DHT22;54688;52.376;16.744;2023-12-20T01:51:12;5.6;90.4
67893;DHT22;54688;52.376;16.744;2023-12-20T01:54:15;5.5;90.4
67893;DHT22;54688;52.376;16.744;2023-12-20T01:57:17;5.6;90.4
67893;DHT22;54688;52.376;16.744;2023-12-20T02:00:19;5.6;90.3
67893;DHT22;54688;52.376;16.744;2023-12-20T02:03:24;5.6;90.4
67893;DHT22;54688;52.376;16.744;2023-12-20T02:06:27;5.5;90.4
67893;DHT22;54688;52.376;16.744;2023-12-20T02:09:31;5.5;90
67893;DHT22;54688;52.376;16.744;2023-12-20T02:12:34;5.5;90.4
67893;DHT22;54688;52.376;16.744;2023-12-20T02:15:37;5.5;90.4
67893;DHT22;54688;52.376;16.744;2023-12-20T02:18:39;5.5;90.4
67893;DHT22;54688;52.376;16.744;2023-12-20T02:21:44;5.5;90.4
67893;DHT22;54688;52.376;16.744;2023-12-20T02:24:46;5.5;90.4
67893;DHT22;54688;52.376;16.744;2023-12-20T02:27:49;5.5;90.4
67893;DHT22;54688;52.376;16.744;2023-12-20T02:30:51;5.5;90.4
67893;DHT22;54688;52.376;16.744;2023-12-20T02:33:54;5.5;90.4
67893;DHT22;54688;52.376;16.744;2023-12-20T02:36:56;5.5;90.4
67893;DHT22;54688;52.376;16.744;2023-12-20T02:39:57;5.5;90.4
67893;DHT22;54688;52.376;16.744;2023-12-20T02:42:59;5.5;90.4
67893;DHT22;54688;52.376;16.744;2023-12-20T02:46:03;5.4;90.8
67893;DHT22;54688;52.376;16.744;2023-12-20T02:49:06;5.5;90.4
67893;DHT22;54688;52.376;16.744;2023-12-20T02:52:08;5.4;90.5
67893;DHT22;54688;52.376;16.744;2023-12-20T02:55:10;5.4;90.4
67893;DHT22;54688;52.376;16.744;2023-12-20T02:58:13;5.4;90.4
67893;DHT22;54688;52.376;16.744;2023-12-20T03:01:16;5.4;90.4
67893;DHT22;54688;52.376;16.744;2023-12-20T03:04:19;5.4;90.4
67893;DHT22;54688;52.376;16.744;2023-12-20T03:07:20;5.4;90.4
67893;DHT22;54688;52.376;16.744;2023-12-20T03:10:22;5.4;90.5
67893;DHT22;54688;52.376;16.744;2023-12-20T03:13:24;5.3;90.4
67893;DHT22;54688;52.376;16.744;2023-12-20T03:16:27;5.3;90.4
67893;DHT22;54688;52.376;16.744;2023-12-20T03:19:29;5.3;90.4
67893;DHT22;54688;52.376;16.744;2023-12-20T03:22:31;5.4;90.5
67893;DHT22;54688;52.376;16.744;2023-12-20T03:25:34;5.3;90.4
67893;DHT22;54688;52.376;16.744;2023-12-20T03:28:37;5.3;90.4
67893;DHT22;54688;52.376;16.744;2023-12-20T03:31:38;5.3;90.4
67893;DHT22;54688;52.376;16.744;2023-12-20T03:34:41;5.3;90.4
67893;DHT22;54688;52.376;16.744;2023-12-20T03:37:43;5.3;90.4
67893;DHT22;54688;52.376;16.744;2023-12-20T03:40:46;5.3;90
67893;DHT22;54688;52.376;16.744;2023-12-20T03:43:48;5.3;90.5
67893;DHT22;54688;52.376;16.744;2023-12-20T03:46:50;5.3;90.8
67893;DHT22;54688;52.376;16.744;2023-12-20T03:49:52;5.2;90.5
67893;DHT22;54688;52.376;16.744;2023-12-20T03:52:55;5.3;90.5
67893;DHT22;54688;52.376;16.744;2023-12-20T03:55:57;5.3;90.5
67893;DHT22;54688;52.376;16.744;2023-12-20T03:58:59;5.2;90.5
67893;DHT22;54688;52.376;16.744;2023-12-20T04:02:01;5.2;90.5
67893;DHT22;54688;52.376;16.744;2023-12-20T04:05:04;5.2;90.5
67893;DHT22;54688;52.376;16.744;2023-12-20T04:08:07;5.3;90.5
67893;DHT22;54688;52.376;16.744;2023-12-20T04:11:11;5.3;90.5
67893;DHT22;54688;52.376;16.744;2023-12-20T04:14:13;5.3;90.5
67893;DHT22;54688;52.376;16.744;2023-12-20T04:17:15;5.2;90.4
67893;DHT22;54688;52.376;16.744;2023-12-20T04:20:18;5.3;90.5
67893;DHT22;54688;52.376;16.744;2023-12-20T04:23:20;5.3;90.5
67893;DHT22;54688;52.376;16.744;2023-12-20T04:26:22;5.3;90.5
67893;DHT22;54688;52.376;16.744;2023-12-20T04:29:24;5.3;90.5
67893;DHT22;54688;52.376;16.744;2023-12-20T04:32:26;5.3;90.5
67893;DHT22;54688;52.376;16.744;2023-12-20T04:35:28;5.3;90.8
67893;DHT22;54688;52.376;16.744;2023-12-20T04:38:31;5.3;90.4
67893;DHT22;54688;52.376;16.744;2023-12-20T04:41:33;5.3;90.4
67893;DHT22;54688;52.376;16.744;2023-12-20T04:44:35;5.2;90.4
67893;DHT22;54688;52.376;16.744;2023-12-20T04:47:37;5.2;90.5
67893;DHT22;54688;52.376;16.744;2023-12-20T04:50:39;5.3;90.5
67893;DHT22;54688;52.376;16.744;2023-12-20T04:53:41;5.3;90.5
67893;DHT22;54688;52.376;16.744;2023-12-20T04:56:43;5.2;90.4
67893;DHT22;54688;52.376;16.744;2023-12-20T04:59:45;5.2;90.4
67893;DHT22;54688;52.376;16.744;2023-12-20T05:02:47;5.2;90.5
67893;DHT22;54688;52.376;16.744;2023-12-20T05:05:50;5.2;90.4
67893;DHT22;54688;52.376;16.744;2023-12-20T05:08:52;5.2;90.5
67893;DHT22;54688;52.376;16.744;2023-12-20T05:11:54;5.2;90.4
67893;DHT22;54688;52.376;16.744;2023-12-20T05:14:57;5.2;90.4
67893;DHT22;54688;52.376;16.744;2023-12-20T05:18:00;5.3;90.5
67893;DHT22;54688;52.376;16.744;2023-12-20T05:21:02;5.3;90.4
67893;DHT22;54688;52.376;16.744;2023-12-20T05:24:05;5.3;90.5
67893;DHT22;54688;52.376;16.744;2023-12-20T05:27:07;5.3;90.4
67893;DHT22;54688;52.376;16.744;2023-12-20T05:30:10;5.3;90.4
67893;DHT22;54688;52.376;16.744;2023-12-20T05:33:13;5.3;90.4
67893;DHT22;54688;52.376;16.744;2023-12-20T05:36:15;5.3;90.4
67893;DHT22;54688;52.376;16.744;2023-12-20T05:39:17;5.3;90.3
67893;DHT22;54688;52.376;16.744;2023-12-20T05:42:19;5.3;90.4
67893;DHT22;54688;52.376;16.744;2023-12-20T05:45:21;5.3;90.3
67893;DHT22;54688;52.376;16.744;2023-12-20T05:48:23;5.3;90.2
67893;DHT22;54688;52.376;16.744;2023-12-20T05:51:25;5.3;90.2
67893;DHT22;54688;52.376;16.744;2023-12-20T05:54:27;5.3;89.9
67893;DHT22;54688;52.376;16.744;2023-12-20T05:57:30;5.3;90.2
67893;DHT22;54688;52.376;16.744;2023-12-20T06:00:32;5.3;90.1
67893;DHT22;54688;52.376;16.744;2023-12-20T06:03:33;5.4;90.2
67893;DHT22;54688;52.376;16.744;2023-12-20T06:06:40;5.4;90.1
67893;DHT22;54688;52.376;16.744;2023-12-20T06:09:42;5.3;90.1
67893;DHT22;54688;52.376;16.744;2023-12-20T06:12:44;5.4;90
67893;DHT22;54688;52.376;16.744;2023-12-20T06:15:47;5.4;90
67893;DHT22;54688;52.376;16.744;2023-12-20T06:18:50;5.3;90
67893;DHT22;54688;52.376;16.744;2023-12-20T06:21:52;5.3;90
67893;DHT22;54688;52.376;16.744;2023-12-20T06:24:54;5.3;90
67893;DHT22;54688;52.376;16.744;2023-12-20T06:27:57;5.3;90
67893;DHT22;54688;52.376;16.744;2023-12-20T06:30:59;5.3;90
67893;DHT22;54688;52.376;16.744;2023-12-20T06:34:01;5.3;90
67893;DHT22;54688;52.376;16.744;2023-12-20T06:37:04;5.2;89.9
67893;DHT22;54688;52.376;16.744;2023-12-20T06:40:06;5.2;89.9
67893;DHT22;54688;52.376;16.744;2023-12-20T06:43:09;5.2;89.9
67893;DHT22;54688;52.376;16.744;2023-12-20T06:46:12;5.1;89.9
67893;DHT22;54688;52.376;16.744;2023-12-20T06:49:15;5.2;89.9
67893;DHT22;54688;52.376;16.744;2023-12-20T06:52:17;5.1;89.8
67893;DHT22;54688;52.376;16.744;2023-12-20T06:55:19;5.1;89.7
67893;DHT22;54688;52.376;16.744;2023-12-20T06:58:21;5.1;89.7
67893;DHT22;54688;52.376;16.744;2023-12-20T07:01:23;5.1;89.7
67893;DHT22;54688;52.376;16.744;2023-12-20T07:04:25;5.1;89.7
67893;DHT22;54688;52.376;16.744;2023-12-20T07:07:27;5.1;89.9
67893;DHT22;54688;52.376;16.744;2023-12-20T07:10:29;5.1;89.9
67893;DHT22;54688;52.376;16.744;2023-12-20T07:13:31;5.1;89.9
67893;DHT22;54688;52.376;16.744;2023-12-20T07:16:33;5.1;89.9
67893;DHT22;54688;52.376;16.744;2023-12-20T07:19:36;5.1;90
67893;DHT22;54688;52.376;16.744;2023-12-20T07:22:39;5.1;90
67893;DHT22;54688;52.376;16.744;2023-12-20T07:25:42;5.1;90
67893;DHT22;54688;52.376;16.744;2023-12-20T07:28:43;5.1;89.8
67893;DHT22;54688;52.376;16.744;2023-12-20T07:31:46;5.1;89.7
67893;DHT22;54688;52.376;16.744;2023-12-20T07:34:48;5.2;89.8
67893;DHT22;54688;52.376;16.744;2023-12-20T07:40:49;5.2;89.7
67893;DHT22;54688;52.376;16.744;2023-12-20T07:43:51;5.2;89.7
67893;DHT22;54688;52.376;16.744;2023-12-20T07:46:53;5.2;89.7
67893;DHT22;54688;52.376;16.744;2023-12-20T07:49:56;5.2;89.7
67893;DHT22;54688;52.376;16.744;2023-12-20T07:52:58;5.1;89.6
67893;DHT22;54688;52.376;16.744;2023-12-20T07:56:00;5.2;89.7
67893;DHT22;54688;52.376;16.744;2023-12-20T07:59:02;5.1;89.5
67893;DHT22;54688;52.376;16.744;2023-12-20T08:02:05;5.2;89.5
67893;DHT22;54688;52.376;16.744;2023-12-20T08:05:07;5.1;89.2
67893;DHT22;54688;52.376;16.744;2023-12-20T08:08:10;5.1;89.1
67893;DHT22;54688;52.376;16.744;2023-12-20T08:11:12;5.1;88.9
67893;DHT22;54688;52.376;16.744;2023-12-20T08:14:14;5.1;88.7
67893;DHT22;54688;52.376;16.744;2023-12-20T08:17:17;5;88.6
67893;DHT22;54688;52.376;16.744;2023-12-20T08:20:19;5;89.3
67893;DHT22;54688;52.376;16.744;2023-12-20T08:23:21;4.9;89.2
67893;DHT22;54688;52.376;16.744;2023-12-20T08:26:23;4.9;89.1
67893;DHT22;54688;52.376;16.744;2023-12-20T08:29:25;5;89.3
67893;DHT22;54688;52.376;16.744;2023-12-20T08:32:28;5;89.5
67893;DHT22;54688;52.376;16.744;2023-12-20T08:35:30;5;88.5
67893;DHT22;54688;52.376;16.744;2023-12-20T08:38:32;5;89.4
67893;DHT22;54688;52.376;16.744;2023-12-20T08:41:34;5.1;88.6
67893;DHT22;54688;52.376;16.744;2023-12-20T08:44:37;5.1;88.2
67893;DHT22;54688;52.376;16.744;2023-12-20T08:47:39;5.1;88.4
67893;DHT22;54688;52.376;16.744;2023-12-20T08:50:41;5;88
67893;DHT22;54688;52.376;16.744;2023-12-20T08:53:45;5.1;88.2
67893;DHT22;54688;52.376;16.744;2023-12-20T08:56:47;5;88
67893;DHT22;54688;52.376;16.744;2023-12-20T08:59:49;5;87.5
67893;DHT22;54688;52.376;16.744;2023-12-20T09:02:52;5;86.9
67893;DHT22;54688;52.376;16.744;2023-12-20T09:05:54;4.9;86.5
67893;DHT22;54688;52.376;16.744;2023-12-20T09:08:57;4.8;86.5
67893;DHT22;54688;52.376;16.744;2023-12-20T09:11:59;4.8;86.8
67893;DHT22;54688;52.376;16.744;2023-12-20T09:15:02;4.8;86.9
67893;DHT22;54688;52.376;16.744;2023-12-20T09:18:05;4.8;86.7
67893;DHT22;54688;52.376;16.744;2023-12-20T09:21:08;4.8;87.4
67893;DHT22;54688;52.376;16.744;2023-12-20T09:24:10;4.8;87.2
67893;DHT22;54688;52.376;16.744;2023-12-20T09:27:11;4.9;87.3
67893;DHT22;54688;52.376;16.744;2023-12-20T09:30:14;4.9;87.4
67893;DHT22;54688;52.376;16.744;2023-12-20T09:33:17;5;87.7
67893;DHT22;54688;52.376;16.744;2023-12-20T09:36:19;5.1;87.3
67893;DHT22;54688;52.376;16.744;2023-12-20T09:39:21;5.2;87.8
67893;DHT22;54688;52.376;16.744;2023-12-20T09:42:24;5.3;86.9
67893;DHT22;54688;52.376;16.744;2023-12-20T09:45:31;5.4;86.2
67893;DHT22;54688;52.376;16.744;2023-12-20T09:48:33;5.4;85.9
67893;DHT22;54688;52.376;16.744;2023-12-20T09:51:37;5.4;85
67893;DHT22;54688;52.376;16.744;2023-12-20T09:54:43;5.4;86
67893;DHT22;54688;52.376;16.744;2023-12-20T09:57:45;5.4;85.1
67893;DHT22;54688;52.376;16.744;2023-12-20T10:00:47;5.4;84.6
67893;DHT22;54688;52.376;16.744;2023-12-20T10:03:50;5.4;84.5
67893;DHT22;54688;52.376;16.744;2023-12-20T10:06:54;5.4;84.7
67893;DHT22;54688;52.376;16.744;2023-12-20T10:09:56;5.4;84.7
67893;DHT22;54688;52.376;16.744;2023-12-20T10:13:02;5.4;84.6
67893;DHT22;54688;52.376;16.744;2023-12-20T10:16:06;5.5;84.5
67893;DHT22;54688;52.376;16.744;2023-12-20T10:19:09;5.5;84.1
67893;DHT22;54688;52.376;16.744;2023-12-20T10:22:12;5.5;83.8
67893;DHT22;54688;52.376;16.744;2023-12-20T10:25:14;5.5;83.3
67893;DHT22;54688;52.376;16.744;2023-12-20T10:28:17;5.4;83.8
67893;DHT22;54688;52.376;16.744;2023-12-20T10:31:26;5.4;82.9
67893;DHT22;54688;52.376;16.744;2023-12-20T10:34:31;5.4;83.4
67893;DHT22;54688;52.376;16.744;2023-12-20T10:37:35;5.3;83
67893;DHT22;54688;52.376;16.744;2023-12-20T10:40:37;5.3;82.8
67893;DHT22;54688;52.376;16.744;2023-12-20T10:43:40;5.3;82.1
67893;DHT22;54688;52.376;16.744;2023-12-20T10:46:44;5.3;83
67893;DHT22;54688;52.376;16.744;2023-12-20T10:49:46;5.2;82.6
67893;DHT22;54688;52.376;16.744;2023-12-20T10:52:48;5.3;82.8
67893;DHT22;54688;52.376;16.744;2023-12-20T10:55:52;5.3;82.6
67893;DHT22;54688;52.376;16.744;2023-12-20T10:58:58;5.3;82.9
67893;DHT22;54688;52.376;16.744;2023-12-20T11:02:04;5.3;82.6
67893;DHT22;54688;52.376;16.744;2023-12-20T11:05:06;5.3;82.8
67893;DHT22;54688;52.376;16.744;2023-12-20T11:08:17;5.3;82.1
67893;DHT22;54688;52.376;16.744;2023-12-20T11:11:26;5.3;82.1
67893;DHT22;54688;52.376;16.744;2023-12-20T11:14:39;5.3;82.4
67893;DHT22;54688;52.376;16.744;2023-12-20T11:17:45;5.3;82.6
67893;DHT22;54688;52.376;16.744;2023-12-20T11:20:47;5.3;82.9
67893;DHT22;54688;52.376;16.744;2023-12-20T11:23:51;5.3;83.4
67893;DHT22;54688;52.376;16.744;2023-12-20T11:26:55;5.2;83.2
67893;DHT22;54688;52.376;16.744;2023-12-20T11:29:58;5.2;83.4
67893;DHT22;54688;52.376;16.744;2023-12-20T11:33:01;5.2;82.6
67893;DHT22;54688;52.376;16.744;2023-12-20T11:36:03;5.2;83.8
67893;DHT22;54688;52.376;16.744;2023-12-20T11:39:18;5.2;84
67893;DHT22;54688;52.376;16.744;2023-12-20T11:42:23;5.2;84.2
67893;DHT22;54688;52.376;16.744;2023-12-20T11:45:26;5.1;83.8
67893;DHT22;54688;52.376;16.744;2023-12-20T11:48:28;5.1;84.5
67893;DHT22;54688;52.376;16.744;2023-12-20T11:51:32;5.1;84.4
67893;DHT22;54688;52.376;16.744;2023-12-20T11:54:34;5;85.2
67893;DHT22;54688;52.376;16.744;2023-12-20T11:57:36;5;85.3
67893;DHT22;54688;52.376;16.744;2023-12-20T12:00:38;5;85.3
67893;DHT22;54688;52.376;16.744;2023-12-20T12:03:41;4.9;86
67893;DHT22;54688;52.376;16.744;2023-12-20T12:06:43;4.9;85.3
67893;DHT22;54688;52.376;16.744;2023-12-20T12:09:46;4.9;85.4
67893;DHT22;54688;52.376;16.744;2023-12-20T12:12:50;4.8;85.2
67893;DHT22;54688;52.376;16.744;2023-12-20T12:15:52;4.9;85.3
67893;DHT22;54688;52.376;16.744;2023-12-20T12:18:56;4.9;85
67893;DHT22;54688;52.376;16.744;2023-12-20T12:22:05;4.9;84.7
67893;DHT22;54688;52.376;16.744;2023-12-20T12:25:09;4.9;84.8
67893;DHT22;54688;52.376;16.744;2023-12-20T12:28:13;4.9;85.1
67893;DHT22;54688;52.376;16.744;2023-12-20T12:31:15;4.9;84.6
67893;DHT22;54688;52.376;16.744;2023-12-20T12:34:17;4.9;84
67893;DHT22;54688;52.376;16.744;2023-12-20T12:37:19;5;84.3
67893;DHT22;54688;52.376;16.744;2023-12-20T12:40:23;5;85.1
67893;DHT22;54688;52.376;16.744;2023-12-20T12:43:25;5.1;84
67893;DHT22;54688;52.376;16.744;2023-12-20T12:46:26;5.1;84.5
67893;DHT22;54688;52.376;16.744;2023-12-20T12:49:30;5.1;84.1
67893;DHT22;54688;52.376;16.744;2023-12-20T12:52:32;5.1;83
67893;DHT22;54688;52.376;16.744;2023-12-20T12:55:35;5.1;82.6
67893;DHT22;54688;52.376;16.744;2023-12-20T12:58:37;5.1;82.9
67893;DHT22;54688;52.376;16.744;2023-12-20T13:01:39;5.1;83
67893;DHT22;54688;52.376;16.744;2023-12-20T13:04:41;5.2;83.1
67893;DHT22;54688;52.376;16.744;2023-12-20T13:07:44;5.2;83.1
67893;DHT22;54688;52.376;16.744;2023-12-20T13:10:46;5.1;82.3
67893;DHT22;54688;52.376;16.744;2023-12-20T13:13:48;5.1;82.4
67893;DHT22;54688;52.376;16.744;2023-12-20T13:16:50;5.2;82.2
67893;DHT22;54688;52.376;16.744;2023-12-20T13:19:52;5.2;81.2
67893;DHT22;54688;52.376;16.744;2023-12-20T13:22:54;5.2;81.5
67893;DHT22;54688;52.376;16.744;2023-12-20T13:25:57;5.1;81.6
67893;DHT22;54688;52.376;16.744;2023-12-20T13:28:59;5.1;81.7
67893;DHT22;54688;52.376;16.744;2023-12-20T13:32:01;5.1;81.2
67893;DHT22;54688;52.376;16.744;2023-12-20T13:35:04;5.1;81.1
67893;DHT22;54688;52.376;16.744;2023-12-20T13:38:06;5.2;80.6
67893;DHT22;54688;52.376;16.744;2023-12-20T13:41:08;5.1;81.4
67893;DHT22;54688;52.376;16.744;2023-12-20T13:44:11;5.1;81.8
67893;DHT22;54688;52.376;16.744;2023-12-20T13:47:14;5.1;81.2
67893;DHT22;54688;52.376;16.744;2023-12-20T13:50:15;5.1;82.5
67893;DHT22;54688;52.376;16.744;2023-12-20T13:53:17;5.1;82.1
67893;DHT22;54688;52.376;16.744;2023-12-20T13:56:19;5.1;81.8
67893;DHT22;54688;52.376;16.744;2023-12-20T13:59:22;5.1;81.4
67893;DHT22;54688;52.376;16.744;2023-12-20T14:05:23;5.1;81
67893;DHT22;54688;52.376;16.744;2023-12-20T14:08:25;5.1;81
67893;DHT22;54688;52.376;16.744;2023-12-20T14:11:27;5.1;81.3
67893;DHT22;54688;52.376;16.744;2023-12-20T14:14:30;5.1;82.1
67893;DHT22;54688;52.376;16.744;2023-12-20T14:17:32;5.1;81.3
67893;DHT22;54688;52.376;16.744;2023-12-20T14:20:34;5.1;81.3
67893;DHT22;54688;52.376;16.744;2023-12-20T14:23:37;5.1;81
67893;DHT22;54688;52.376;16.744;2023-12-20T14:26:40;5.1;80.4
67893;DHT22;54688;52.376;16.744;2023-12-20T14:29:43;5.1;80.7
67893;DHT22;54688;52.376;16.744;2023-12-20T14:32:45;5.1;80.6
67893;DHT22;54688;52.376;16.744;2023-12-20T14:35:48;5.1;80.2
67893;DHT22;54688;52.376;16.744;2023-12-20T14:38:50;5.1;80
67893;DHT22;54688;52.376;16.744;2023-12-20T14:41:53;5.1;79.9
67893;DHT22;54688;52.376;16.744;2023-12-20T14:44:55;5.2;80.5
67893;DHT22;54688;52.376;16.744;2023-12-20T14:47:57;5.2;80.9
67893;DHT22;54688;52.376;16.744;2023-12-20T14:50:59;5.1;81.4
67893;DHT22;54688;52.376;16.744;2023-12-20T14:54:01;5;81.7
67893;DHT22;54688;52.376;16.744;2023-12-20T14:57:04;4.9;82.2
67893;DHT22;54688;52.376;16.744;2023-12-20T15:00:07;4.8;82.6
67893;DHT22;54688;52.376;16.744;2023-12-20T15:03:10;4.8;83.3
67893;DHT22;54688;52.376;16.744;2023-12-20T15:06:12;4.8;83.3
67893;DHT22;54688;52.376;16.744;2023-12-20T15:09:15;4.8;83.1
67893;DHT22;54688;52.376;16.744;2023-12-20T15:12:17;4.8;83
67893;DHT22;54688;52.376;16.744;2023-12-20T15:15:20;4.8;82.9
67893;DHT22;54688;52.376;16.744;2023-12-20T15:18:23;4.8;83.1
67893;DHT22;54688;52.376;16.744;2023-12-20T15:21:25;4.8;83.7
67893;DHT22;54688;52.376;16.744;2023-12-20T15:24:27;4.8;82.8
67893;DHT22;54688;52.376;16.744;2023-12-20T15:27:28;4.8;82.9
67893;DHT22;54688;52.376;16.744;2023-12-20T15:30:30;4.7;83.1
67893;DHT22;54688;52.376;16.744;2023-12-20T15:33:33;4.5;83.8
67893;DHT22;54688;52.376;16.744;2023-12-20T15:36:35;4.4;84.9
67893;DHT22;54688;52.376;16.744;2023-12-20T15:39:37;4.3;86.1
67893;DHT22;54688;52.376;16.744;2023-12-20T15:42:39;4.2;86.8
67893;DHT22;54688;52.376;16.744;2023-12-20T15:45:42;4.2;87.3
67893;DHT22;54688;52.376;16.744;2023-12-20T15:48:44;4.1;87.7
67893;DHT22;54688;52.376;16.744;2023-12-20T15:51:46;4.1;88.2
67893;DHT22;54688;52.376;16.744;2023-12-20T15:54:48;4.1;88.4
67893;DHT22;54688;52.376;16.744;2023-12-20T15:57:50;4.1;89.2
67893;DHT22;54688;52.376;16.744;2023-12-20T16:00:52;4.2;89
67893;DHT22;54688;52.376;16.744;2023-12-20T16:03:54;4.2;89.1
67893;DHT22;54688;52.376;16.744;2023-12-20T16:06:56;4.2;89.1
67893;DHT22;54688;52.376;16.744;2023-12-20T16:09:59;4.1;89.1
67893;DHT22;54688;52.376;16.744;2023-12-20T16:13:01;3.6;79.3
67893;DHT22;54688;52.376;16.744;2023-12-20T16:16:04;2.6;82.1
67893;DHT22;54688;52.376;16.744;2023-12-20T16:19:07;2.2;85.2
67893;DHT22;54688;52.376;16.744;2023-12-20T16:22:09;2;86.6
67893;DHT22;54688;52.376;16.744;2023-12-20T16:25:11;1.8;87.8
67893;DHT22;54688;52.376;16.744;2023-12-20T16:28:14;1.7;88.3
67893;DHT22;54688;52.376;16.744;2023-12-20T16:31:16;1.6;88.6
67893;DHT22;54688;52.376;16.744;2023-12-20T16:34:19;1.6;88.9
67893;DHT22;54688;52.376;16.744;2023-12-20T16:37:22;1.6;89.2
67893;DHT22;54688;52.376;16.744;2023-12-20T16:40:23;1.6;89.1
67893;DHT22;54688;52.376;16.744;2023-12-20T16:43:26;1.6;88.9
67893;DHT22;54688;52.376;16.744;2023-12-20T16:46:27;1.6;89.4
67893;DHT22;54688;52.376;16.744;2023-12-20T16:49:30;1.6;89.3
67893;DHT22;54688;52.376;16.744;2023-12-20T16:52:32;1.6;90
67893;DHT22;54688;52.376;16.744;2023-12-20T16:55:34;1.6;90.4
67893;DHT22;54688;52.376;16.744;2023-12-20T16:58:36;1.7;90.2
67893;DHT22;54688;52.376;16.744;2023-12-20T17:01:38;1.8;90.7
67893;DHT22;54688;52.376;16.744;2023-12-20T17:04:40;1.9;90.9
67893;DHT22;54688;52.376;16.744;2023-12-20T17:07:43;2.2;91.1
67893;DHT22;54688;52.376;16.744;2023-12-20T17:10:46;2.3;90.7
67893;DHT22;54688;52.376;16.744;2023-12-20T17:13:48;2.5;91.2
67893;DHT22;54688;52.376;16.744;2023-12-20T17:16:50;2.6;90.9
67893;DHT22;54688;52.376;16.744;2023-12-20T17:19:52;2.7;90.6
67893;DHT22;54688;52.376;16.744;2023-12-20T17:22:54;2.8;90.6
67893;DHT22;54688;52.376;16.744;2023-12-20T17:25:57;3;90.4
67893;DHT22;54688;52.376;16.744;2023-12-20T17:28:59;3.1;90.1
67893;DHT22;54688;52.376;16.744;2023-12-20T17:32:01;3.1;89.5
67893;DHT22;54688;52.376;16.744;2023-12-20T17:35:03;3.2;88.3
67893;DHT22;54688;52.376;16.744;2023-12-20T17:38:05;3.3;89
67893;DHT22;54688;52.376;16.744;2023-12-20T17:41:08;3.3;88.3
67893;DHT22;54688;52.376;16.744;2023-12-20T17:44:10;3.3;87.9
67893;DHT22;54688;52.376;16.744;2023-12-20T17:47:13;3.3;87.3
67893;DHT22;54688;52.376;16.744;2023-12-20T17:50:15;3.3;87.1
67893;DHT22;54688;52.376;16.744;2023-12-20T17:53:18;3.3;86.8
67893;DHT22;54688;52.376;16.744;2023-12-20T17:56:20;3.3;86.3
67893;DHT22;54688;52.376;16.744;2023-12-20T17:59:22;3.3;86
67893;DHT22;54688;52.376;16.744;2023-12-20T18:02:24;3.3;85.4
67893;DHT22;54688;52.376;16.744;2023-12-20T18:05:26;3.3;85.1
67893;DHT22;54688;52.376;16.744;2023-12-20T18:08:28;3.2;84.8
67893;DHT22;54688;52.376;16.744;2023-12-20T18:11:30;3.2;84.8
67893;DHT22;54688;52.376;16.744;2023-12-20T18:14:32;3.2;84.6
67893;DHT22;54688;52.376;16.744;2023-12-20T18:17:34;3.2;84.4
67893;DHT22;54688;52.376;16.744;2023-12-20T18:20:36;3.2;84.2
67893;DHT22;54688;52.376;16.744;2023-12-20T18:23:37;3.1;84.5
67893;DHT22;54688;52.376;16.744;2023-12-20T18:26:39;3.1;84.3
67893;DHT22;54688;52.376;16.744;2023-12-20T18:29:41;3;83.7
67893;DHT22;54688;52.376;16.744;2023-12-20T18:32:43;3;85.4
67893;DHT22;54688;52.376;16.744;2023-12-20T18:35:46;2.9;84.7
67893;DHT22;54688;52.376;16.744;2023-12-20T18:38:49;2.9;85.4
67893;DHT22;54688;52.376;16.744;2023-12-20T18:41:51;2.9;85.2
67893;DHT22;54688;52.376;16.744;2023-12-20T18:44:53;2.8;84.8
67893;DHT22;54688;52.376;16.744;2023-12-20T18:47:55;2.8;85.8
67893;DHT22;54688;52.376;16.744;2023-12-20T18:50:57;2.8;85.9
67893;DHT22;54688;52.376;16.744;2023-12-20T18:54:00;2.8;85.8
67893;DHT22;54688;52.376;16.744;2023-12-20T18:57:03;2.8;85.4
67893;DHT22;54688;52.376;16.744;2023-12-20T19:00:06;2.8;85.8
67893;DHT22;54688;52.376;16.744;2023-12-20T19:03:09;2.8;86.7
67893;DHT22;54688;52.376;16.744;2023-12-20T19:06:12;2.8;87
67893;DHT22;54688;52.376;16.744;2023-12-20T19:09:14;2.8;86.5
67893;DHT22;54688;52.376;16.744;2023-12-20T19:12:16;2.9;86.8
67893;DHT22;54688;52.376;16.744;2023-12-20T19:15:18;3;86.9
67893;DHT22;54688;52.376;16.744;2023-12-20T19:18:20;3;86.9
67893;DHT22;54688;52.376;16.744;2023-12-20T19:21:22;3;86.9
67893;DHT22;54688;52.376;16.744;2023-12-20T19:24:24;3.1;86.8
67893;DHT22;54688;52.376;16.744;2023-12-20T19:27:27;3.1;86.7
67893;DHT22;54688;52.376;16.744;2023-12-20T19:30:29;3.1;85.8
67893;DHT22;54688;52.376;16.744;2023-12-20T19:33:34;3.2;86.4
67893;DHT22;54688;52.376;16.744;2023-12-20T19:36:37;3.2;86.1
67893;DHT22;54688;52.376;16.744;2023-12-20T19:39:39;3.2;86.3
67893;DHT22;54688;52.376;16.744;2023-12-20T19:42:41;3.2;85.8
67893;DHT22;54688;52.376;16.744;2023-12-20T19:45:43;3.2;85.9
67893;DHT22;54688;52.376;16.744;2023-12-20T19:48:45;3.1;84.6
67893;DHT22;54688;52.376;16.744;2023-12-20T19:51:47;3.1;85.5
67893;DHT22;54688;52.376;16.744;2023-12-20T19:54:50;3.1;84.8
67893;DHT22;54688;52.376;16.744;2023-12-20T19:57:51;3.1;85.6
67893;DHT22;54688;52.376;16.744;2023-12-20T20:00:53;3.1;85.4
67893;DHT22;54688;52.376;16.744;2023-12-20T20:03:55;3.1;85.2